createdAt,value
2018-12-12T00:00:39.896Z,64.48
2018-12-12T00:01:39.898Z,65.52
2018-12-12T00:02:39.899Z,64.95
2018-12-12T00:03:39.900Z,64.01
2018-12-12T00:04:39.903Z,63.16
2018-12-12T00:05:39.905Z,63.03
2018-12-12T00:06:39.908Z,62.47
2018-12-12T00:07:39.903Z,61.84
2018-12-12T00:08:39.908Z,61.33
2018-12-12T00:09:39.910Z,61.05
2018-12-12T00:10:39.912Z,60.68
2018-12-12T00:11:39.912Z,60.30
2018-12-12T00:12:39.911Z,59.83
2018-12-12T00:13:39.916Z,60.21
2018-12-12T00:14:39.917Z,60.39
2018-12-12T00:15:40.693Z,59.74
2018-12-12T00:16:39.919Z,59.45
2018-12-12T00:17:39.923Z,59.83
2018-12-12T00:18:39.925Z,60.30
2018-12-12T00:19:39.924Z,60.96
2018-12-12T00:20:39.925Z,61.33
2018-12-12T00:21:39.929Z,61.15
2018-12-12T00:22:39.930Z,60.30
2018-12-12T00:23:39.927Z,60.21
2018-12-12T00:24:39.929Z,60.39
2018-12-12T00:25:39.936Z,59.83
2018-12-12T00:26:39.933Z,60.11
2018-12-12T00:27:39.936Z,60.21
2018-12-12T00:28:39.936Z,60.68
2018-12-12T00:29:39.943Z,61.43
2018-12-12T00:30:39.946Z,62.09
2018-12-12T00:31:39.940Z,62.47
2018-12-12T00:32:39.942Z,62.56
2018-12-12T00:33:39.944Z,62.09
2018-12-12T00:34:39.945Z,61.33
2018-12-12T00:35:41.069Z,60.86
2018-12-12T00:36:39.950Z,60.30
2018-12-12T00:37:39.953Z,59.83
2018-12-12T00:38:40.003Z,59.45
2018-12-12T00:39:39.950Z,59.08
2018-12-12T00:40:39.958Z,59.17
2018-12-12T00:41:39.957Z,58.32
2018-12-12T00:42:39.958Z,57.57
2018-12-12T00:43:39.961Z,56.15
2018-12-12T00:44:39.963Z,55.21
2018-12-12T00:45:39.961Z,54.74
2018-12-12T00:46:39.961Z,54.36
2018-12-12T00:47:39.966Z,54.36
2018-12-12T00:48:39.965Z,55.21
2018-12-12T00:49:39.965Z,55.68
2018-12-12T00:50:39.969Z,55.68
2018-12-12T00:51:39.974Z,56.25
2018-12-12T00:52:39.970Z,56.15
2018-12-12T00:53:39.973Z,55.96
2018-12-12T00:54:39.974Z,56.53
2018-12-12T00:55:39.975Z,56.34
2018-12-12T00:56:39.979Z,56.25
2018-12-12T00:57:39.977Z,56.44
2018-12-12T00:58:39.982Z,56.34
2018-12-12T00:59:39.981Z,55.96
2018-12-12T01:00:39.981Z,56.06
2018-12-12T01:01:39.988Z,55.96
2018-12-12T01:02:39.985Z,55.59
2018-12-12T01:03:39.984Z,55.96
2018-12-12T01:04:39.987Z,56.25
2018-12-12T01:05:39.987Z,56.62
2018-12-12T01:06:39.994Z,57.29
2018-12-12T01:07:39.990Z,57.47
2018-12-12T01:08:39.996Z,57.00
2018-12-12T01:09:39.993Z,55.96
2018-12-12T01:10:39.998Z,55.02
2018-12-12T01:11:39.996Z,54.17
2018-12-12T01:12:39.997Z,53.70
2018-12-12T01:13:39.999Z,53.52
2018-12-12T01:14:40.001Z,53.99
2018-12-12T01:15:40.001Z,53.80
2018-12-12T01:16:40.003Z,54.08
2018-12-12T01:17:40.006Z,54.83
2018-12-12T01:18:40.005Z,55.02
2018-12-12T01:19:40.006Z,55.30
2018-12-12T01:20:40.009Z,55.87
2018-12-12T01:21:40.015Z,56.44
2018-12-12T01:22:40.020Z,57.38
2018-12-12T01:23:40.013Z,57.47
2018-12-12T01:24:40.014Z,57.29
2018-12-12T01:25:40.016Z,57.66
2018-12-12T01:26:40.019Z,58.32
2018-12-12T01:27:40.019Z,58.32
2018-12-12T01:28:40.020Z,58.23
2018-12-12T01:29:40.021Z,57.76
2018-12-12T01:30:40.026Z,58.80
2018-12-12T01:31:40.023Z,59.55
2018-12-12T01:32:40.028Z,59.45
2018-12-12T01:33:40.028Z,59.74
2018-12-12T01:34:40.031Z,59.64
2018-12-12T01:35:40.030Z,59.83
2018-12-12T01:36:40.030Z,58.98
2018-12-12T01:37:40.035Z,58.89
2018-12-12T01:38:40.033Z,59.55
2018-12-12T01:39:40.033Z,59.55
2018-12-12T01:40:40.040Z,59.92
2018-12-12T01:41:40.037Z,60.86
2018-12-12T01:42:40.039Z,61.52
2018-12-12T01:43:40.039Z,62.37
2018-12-12T01:44:40.041Z,62.56
2018-12-12T01:45:40.043Z,61.71
2018-12-12T01:46:40.047Z,60.86
2018-12-12T01:47:40.045Z,59.74
2018-12-12T01:48:40.043Z,58.51
2018-12-12T01:49:40.047Z,57.85
2018-12-12T01:50:40.049Z,57.57
2018-12-12T01:51:40.046Z,57.29
2018-12-12T01:52:40.049Z,57.00
2018-12-12T01:53:40.052Z,56.34
2018-12-12T01:54:40.052Z,55.78
2018-12-12T01:55:40.052Z,55.21
2018-12-12T01:56:40.053Z,55.40
2018-12-12T01:57:40.059Z,54.74
2018-12-12T01:58:40.058Z,54.46
2018-12-12T01:59:40.058Z,54.36
2018-12-12T02:00:40.057Z,53.99
2018-12-12T02:01:40.057Z,53.80
2018-12-12T02:02:40.060Z,52.95
2018-12-12T02:03:40.062Z,52.48
2018-12-12T02:04:40.063Z,51.54
2018-12-12T02:05:40.061Z,50.97
2018-12-12T02:06:40.067Z,50.78
2018-12-12T02:07:40.069Z,50.31
2018-12-12T02:08:40.063Z,49.93
2018-12-12T02:09:40.070Z,49.27
2018-12-12T02:10:40.066Z,48.99
2018-12-12T02:11:40.070Z,48.33
2018-12-12T02:12:40.071Z,48.24
2018-12-12T02:13:40.072Z,47.49
2018-12-12T02:14:40.072Z,47.11
2018-12-12T02:15:40.079Z,47.11
2018-12-12T02:16:40.071Z,46.73
2018-12-12T02:17:40.073Z,46.45
2018-12-12T02:18:40.077Z,46.26
2018-12-12T02:19:40.072Z,45.60
2018-12-12T02:20:40.074Z,44.75
2018-12-12T02:21:40.080Z,43.72
2018-12-12T02:22:40.077Z,41.64
2018-12-12T02:23:40.078Z,40.89
2018-12-12T02:24:40.078Z,40.89
2018-12-12T02:25:40.079Z,41.55
2018-12-12T02:26:40.080Z,41.64
2018-12-12T02:27:40.080Z,42.96
2018-12-12T02:28:40.082Z,42.58
2018-12-12T02:29:40.081Z,42.87
2018-12-12T02:30:40.083Z,43.62
2018-12-12T02:31:40.085Z,43.53
2018-12-12T02:32:40.083Z,43.05
2018-12-12T02:33:40.091Z,41.46
2018-12-12T02:34:40.090Z,40.42
2018-12-12T02:35:40.090Z,40.14
2018-12-12T02:36:40.090Z,39.95
2018-12-12T02:37:40.089Z,39.95
2018-12-12T02:38:40.094Z,40.61
2018-12-12T02:39:40.093Z,41.55
2018-12-12T02:40:40.094Z,42.11
2018-12-12T02:41:40.098Z,41.74
2018-12-12T02:42:40.097Z,41.27
2018-12-12T02:43:40.096Z,40.61
2018-12-12T02:44:40.097Z,40.14
2018-12-12T02:45:40.102Z,40.14
2018-12-12T02:46:40.102Z,40.23
2018-12-12T02:47:40.101Z,40.42
2018-12-12T02:48:40.106Z,40.61
2018-12-12T02:49:40.104Z,41.36
2018-12-12T02:50:40.105Z,41.55
2018-12-12T02:51:40.106Z,42.21
2018-12-12T02:52:40.109Z,42.30
2018-12-12T02:53:40.118Z,42.96
2018-12-12T02:54:40.107Z,44.09
2018-12-12T02:55:40.109Z,44.38
2018-12-12T02:56:40.115Z,43.43
2018-12-12T02:57:40.121Z,43.15
2018-12-12T02:58:40.118Z,42.58
2018-12-12T02:59:40.114Z,42.11
2018-12-12T03:00:40.115Z,41.46
2018-12-12T03:01:40.116Z,41.36
2018-12-12T03:02:40.119Z,40.33
2018-12-12T03:03:40.123Z,40.04
2018-12-12T03:04:40.118Z,39.48
2018-12-12T03:05:40.122Z,39.76
2018-12-12T03:06:40.123Z,39.95
2018-12-12T03:07:40.126Z,40.23
2018-12-12T03:08:40.121Z,40.14
2018-12-12T03:09:40.124Z,40.14
2018-12-12T03:10:40.124Z,38.53
2018-12-12T03:11:40.126Z,37.69
2018-12-12T03:12:40.131Z,36.27
2018-12-12T03:13:40.131Z,36.29
2018-12-12T03:14:40.129Z,35.91
2018-12-12T03:15:40.131Z,35.82
2018-12-12T03:16:40.133Z,35.82
2018-12-12T03:17:40.131Z,36.67
2018-12-12T03:18:40.134Z,37.14
2018-12-12T03:19:40.145Z,37.80
2018-12-12T03:20:40.140Z,37.61
2018-12-12T03:21:40.140Z,38.75
2018-12-12T03:22:40.140Z,38.18
2018-12-12T03:23:40.140Z,37.80
2018-12-12T03:24:40.143Z,38.75
2018-12-12T03:25:40.143Z,38.56
2018-12-12T03:26:40.142Z,39.31
2018-12-12T03:27:40.143Z,40.72
2018-12-12T03:28:40.144Z,41.76
2018-12-12T03:29:40.146Z,42.51
2018-12-12T03:30:40.149Z,42.02
2018-12-12T03:31:40.154Z,41.64
2018-12-12T03:32:40.154Z,41.27
2018-12-12T03:33:40.158Z,41.38
2018-12-12T03:34:40.152Z,41.93
2018-12-12T03:35:40.154Z,41.93
2018-12-12T03:36:40.156Z,42.21
2018-12-12T03:37:40.159Z,42.30
2018-12-12T03:38:40.166Z,41.46
2018-12-12T03:39:40.159Z,41.46
2018-12-12T03:40:40.161Z,41.64
2018-12-12T03:41:40.162Z,42.11
2018-12-12T03:42:40.166Z,41.83
2018-12-12T03:43:40.164Z,42.49
2018-12-12T03:44:40.167Z,42.77
2018-12-12T03:45:40.165Z,43.43
2018-12-12T03:46:40.167Z,43.62
2018-12-12T03:47:40.167Z,43.05
2018-12-12T03:48:40.168Z,42.87
2018-12-12T03:49:40.171Z,41.83
2018-12-12T03:50:40.173Z,41.64
2018-12-12T03:51:40.172Z,41.74
2018-12-12T03:52:40.174Z,41.17
2018-12-12T03:53:40.175Z,40.42
2018-12-12T03:54:40.180Z,39.76
2018-12-12T03:55:40.175Z,40.14
2018-12-12T03:56:40.180Z,40.23
2018-12-12T03:57:40.180Z,39.38
2018-12-12T03:58:40.180Z,38.06
2018-12-12T03:59:40.181Z,37.31
2018-12-12T04:00:40.186Z,36.74
2018-12-12T04:01:40.186Z,36.74
2018-12-12T04:02:40.187Z,36.67
2018-12-12T04:03:40.189Z,37.87
2018-12-12T04:04:40.190Z,37.50
2018-12-12T04:05:40.191Z,37.21
2018-12-12T04:06:40.190Z,37.50
2018-12-12T04:07:40.194Z,37.87
2018-12-12T04:08:40.193Z,37.87
2018-12-12T04:09:40.199Z,37.50
2018-12-12T04:10:40.197Z,36.55
2018-12-12T04:11:40.196Z,36.74
2018-12-12T04:12:40.195Z,36.93
2018-12-12T04:13:40.199Z,36.93
2018-12-12T04:14:40.201Z,36.93
2018-12-12T04:15:40.201Z,37.59
2018-12-12T04:16:40.204Z,37.99
2018-12-12T04:17:40.204Z,38.16
2018-12-12T04:18:40.206Z,39.48
2018-12-12T04:19:40.203Z,39.86
2018-12-12T04:20:40.206Z,40.14
2018-12-12T04:21:40.208Z,40.23
2018-12-12T04:22:40.210Z,40.52
2018-12-12T04:23:40.214Z,41.36
2018-12-12T04:24:40.214Z,42.11
2018-12-12T04:25:40.217Z,41.93
2018-12-12T04:26:40.213Z,41.74
2018-12-12T04:27:40.215Z,41.55
2018-12-12T04:28:40.216Z,42.21
2018-12-12T04:29:40.223Z,43.05
2018-12-12T04:30:40.219Z,42.40
2018-12-12T04:31:40.226Z,42.30
2018-12-12T04:32:40.220Z,41.74
2018-12-12T04:33:40.224Z,41.74
2018-12-12T04:34:40.226Z,41.46
2018-12-12T04:35:40.229Z,41.36
2018-12-12T04:36:40.227Z,41.36
2018-12-12T04:37:40.228Z,41.36
2018-12-12T04:38:40.229Z,42.11
2018-12-12T04:39:40.231Z,42.87
2018-12-12T04:40:40.232Z,42.68
2018-12-12T04:41:40.236Z,42.77
2018-12-12T04:42:40.237Z,42.96
2018-12-12T04:43:40.235Z,43.90
2018-12-12T04:44:40.239Z,43.53
2018-12-12T04:45:40.238Z,44.38
2018-12-12T04:46:40.241Z,43.62
2018-12-12T04:47:40.240Z,43.81
2018-12-12T04:48:40.240Z,43.15
2018-12-12T04:49:40.244Z,42.77
2018-12-12T04:50:40.245Z,43.05
2018-12-12T04:51:40.248Z,43.24
2018-12-12T04:52:40.246Z,42.02
2018-12-12T04:53:40.246Z,40.23
2018-12-12T04:54:40.248Z,39.76
2018-12-12T04:55:40.249Z,39.01
2018-12-12T04:56:40.250Z,39.48
2018-12-12T04:57:40.255Z,39.67
2018-12-12T04:58:40.252Z,39.86
2018-12-12T04:59:40.253Z,39.10
2018-12-12T05:00:40.255Z,38.53
2018-12-12T05:01:40.256Z,37.97
2018-12-12T05:02:40.256Z,38.72
2018-12-12T05:03:40.257Z,38.82
2018-12-12T05:04:40.261Z,39.48
2018-12-12T05:05:40.260Z,39.95
2018-12-12T05:06:40.262Z,39.95
2018-12-12T05:07:40.265Z,39.95
2018-12-12T05:08:40.265Z,38.72
2018-12-12T05:09:40.265Z,38.16
2018-12-12T05:10:40.268Z,37.90
2018-12-12T05:11:40.268Z,37.31
2018-12-12T05:12:40.269Z,36.76
2018-12-12T05:13:40.269Z,36.10
2018-12-12T05:14:40.272Z,35.63
2018-12-12T05:15:40.273Z,35.25
2018-12-12T05:16:40.273Z,34.97
2018-12-12T05:17:40.282Z,34.50
2018-12-12T05:18:40.277Z,34.22
2018-12-12T05:19:40.277Z,33.65
2018-12-12T05:20:40.276Z,33.28
2018-12-12T05:21:40.285Z,33.47
2018-12-12T05:22:40.280Z,33.47
2018-12-12T05:23:40.282Z,32.90
2018-12-12T05:24:40.282Z,32.33
2018-12-12T05:25:40.287Z,31.67
2018-12-12T05:26:40.288Z,31.67
2018-12-12T05:27:40.286Z,31.39
2018-12-12T05:28:40.290Z,31.10
2018-12-12T05:29:40.288Z,31.01
2018-12-12T05:30:40.290Z,31.01
2018-12-12T05:31:40.292Z,30.73
2018-12-12T05:32:40.294Z,30.26
2018-12-12T05:33:40.300Z,29.69
2018-12-12T05:34:40.296Z,29.69
2018-12-12T05:35:40.296Z,29.32
2018-12-12T05:36:40.298Z,28.85
2018-12-12T05:37:40.301Z,28.38
2018-12-12T05:38:40.303Z,29.32
2018-12-12T05:39:40.302Z,29.97
2018-12-12T05:40:40.306Z,30.92
2018-12-12T05:41:40.305Z,31.95
2018-12-12T05:42:40.306Z,32.90
2018-12-12T05:43:40.307Z,34.03
2018-12-12T05:44:40.307Z,34.50
2018-12-12T05:45:40.307Z,34.50
2018-12-12T05:46:41.952Z,34.41
2018-12-12T05:47:40.312Z,33.65
2018-12-12T05:48:40.338Z,34.31
2018-12-12T05:49:40.317Z,34.78
2018-12-12T05:50:40.316Z,36.20
2018-12-12T05:51:40.320Z,36.29
2018-12-12T05:52:40.321Z,36.48
2018-12-12T05:53:40.320Z,36.48
2018-12-12T05:54:40.322Z,36.38
2018-12-12T05:55:40.321Z,37.14
2018-12-12T05:56:40.325Z,37.42
2018-12-12T05:57:40.327Z,37.23
2018-12-12T05:58:40.328Z,37.33
2018-12-12T05:59:40.330Z,36.76
2018-12-12T06:00:40.331Z,35.63
2018-12-12T06:01:40.337Z,34.97
2018-12-12T06:02:40.335Z,34.59
2018-12-12T06:03:40.390Z,34.22
2018-12-12T06:04:40.337Z,34.22
2018-12-12T06:05:40.337Z,34.88
2018-12-12T06:06:40.341Z,35.72
2018-12-12T06:07:40.339Z,36.38
2018-12-12T06:08:40.341Z,37.40
2018-12-12T06:09:40.345Z,37.61
2018-12-12T06:10:40.344Z,38.56
2018-12-12T06:11:40.347Z,38.93
2018-12-12T06:12:40.347Z,39.03
2018-12-12T06:13:40.349Z,39.40
2018-12-12T06:14:40.350Z,39.67
2018-12-12T06:15:40.351Z,39.50
2018-12-12T06:16:40.354Z,39.29
2018-12-12T06:17:40.359Z,39.03
2018-12-12T06:18:40.356Z,38.56
2018-12-12T06:19:40.356Z,38.72
2018-12-12T06:20:40.357Z,38.27
2018-12-12T06:21:40.361Z,38.27
2018-12-12T06:22:40.362Z,38.25
2018-12-12T06:23:40.360Z,38.16
2018-12-12T06:24:40.364Z,38.06
2018-12-12T06:25:40.393Z,38.72
2018-12-12T06:26:40.364Z,38.82
2018-12-12T06:27:40.364Z,38.35
2018-12-12T06:28:40.367Z,38.35
2018-12-12T06:29:40.369Z,38.53
2018-12-12T06:30:40.369Z,38.06
2018-12-12T06:31:40.368Z,38.06
2018-12-12T06:32:40.370Z,38.91
2018-12-12T06:33:40.375Z,38.35
2018-12-12T06:34:41.167Z,38.25
2018-12-12T06:35:40.374Z,38.16
2018-12-12T06:36:40.377Z,37.59
2018-12-12T06:37:40.376Z,37.40
2018-12-12T06:38:40.381Z,36.84
2018-12-12T06:39:40.381Z,36.93
2018-12-12T06:40:40.380Z,36.55
2018-12-12T06:41:40.381Z,36.55
2018-12-12T06:42:40.383Z,35.80
2018-12-12T06:43:40.384Z,34.77
2018-12-12T06:44:40.386Z,34.31
2018-12-12T06:45:40.386Z,34.03
2018-12-12T06:46:40.389Z,34.69
2018-12-12T06:47:40.389Z,34.58
2018-12-12T06:48:40.389Z,34.20
2018-12-12T06:49:40.392Z,34.39
2018-12-12T06:50:40.392Z,34.77
2018-12-12T06:51:40.391Z,35.42
2018-12-12T06:52:40.393Z,35.33
2018-12-12T06:53:40.393Z,35.63
2018-12-12T06:54:40.396Z,35.82
2018-12-12T06:55:40.396Z,36.10
2018-12-12T06:56:40.397Z,36.38
2018-12-12T06:57:40.399Z,36.65
2018-12-12T06:58:40.401Z,35.71
2018-12-12T06:59:40.400Z,36.01
2018-12-12T07:00:40.408Z,35.91
2018-12-12T07:01:40.403Z,36.36
2018-12-12T07:02:40.408Z,36.76
2018-12-12T07:03:40.407Z,36.67
2018-12-12T07:04:40.408Z,36.46
2018-12-12T07:05:40.409Z,36.93
2018-12-12T07:06:40.412Z,37.02
2018-12-12T07:07:40.412Z,36.36
2018-12-12T07:08:40.428Z,36.10
2018-12-12T07:09:40.424Z,36.18
2018-12-12T07:10:40.414Z,36.18
2018-12-12T07:11:40.417Z,36.29
2018-12-12T07:12:40.417Z,36.10
2018-12-12T07:13:40.419Z,35.35
2018-12-12T07:14:40.423Z,34.50
2018-12-12T07:15:40.420Z,34.41
2018-12-12T07:16:40.426Z,34.03
2018-12-12T07:17:40.423Z,33.94
2018-12-12T07:18:40.424Z,33.75
2018-12-12T07:19:40.425Z,33.47
2018-12-12T07:20:40.427Z,32.90
2018-12-12T07:21:40.427Z,31.86
2018-12-12T07:22:40.430Z,31.20
2018-12-12T07:23:40.431Z,30.92
2018-12-12T07:24:40.432Z,31.20
2018-12-12T07:25:40.434Z,31.95
2018-12-12T07:26:40.435Z,32.14
2018-12-12T07:27:40.435Z,32.14
2018-12-12T07:28:40.437Z,32.71
2018-12-12T07:29:40.436Z,31.95
2018-12-12T07:30:40.438Z,32.24
2018-12-12T07:31:40.439Z,32.62
2018-12-12T07:32:40.439Z,33.28
2018-12-12T07:33:40.441Z,33.47
2018-12-12T07:34:40.443Z,34.31
2018-12-12T07:35:40.450Z,33.84
2018-12-12T07:36:40.452Z,33.94
2018-12-12T07:37:40.448Z,34.31
2018-12-12T07:38:40.450Z,33.28
2018-12-12T07:39:40.448Z,32.80
2018-12-12T07:40:40.455Z,33.47
2018-12-12T07:41:40.489Z,33.84
2018-12-12T07:42:40.455Z,34.59
2018-12-12T07:43:40.458Z,35.35
2018-12-12T07:44:40.459Z,35.82
2018-12-12T07:45:40.465Z,35.82
2018-12-12T07:46:40.466Z,35.53
2018-12-12T07:47:40.463Z,35.44
2018-12-12T07:48:40.463Z,35.35
2018-12-12T07:49:40.464Z,34.97
2018-12-12T07:50:40.466Z,34.78
2018-12-12T07:51:40.470Z,34.41
2018-12-12T07:52:40.469Z,34.59
2018-12-12T07:53:40.468Z,34.59
2018-12-12T07:54:40.472Z,33.56
2018-12-12T07:55:40.472Z,32.24
2018-12-12T07:56:40.470Z,32.05
2018-12-12T07:57:40.474Z,32.05
2018-12-12T07:58:40.476Z,32.14
2018-12-12T07:59:40.477Z,32.90
2018-12-12T08:00:40.479Z,33.56
2018-12-12T08:01:40.481Z,33.56
2018-12-12T08:02:40.480Z,33.47
2018-12-12T08:03:40.483Z,33.56
2018-12-12T08:04:40.483Z,32.90
2018-12-12T08:05:40.486Z,32.71
2018-12-12T08:06:40.488Z,32.62
2018-12-12T08:07:40.488Z,32.52
2018-12-12T08:08:40.489Z,32.71
2018-12-12T08:09:40.490Z,32.33
2018-12-12T08:10:40.494Z,32.62
2018-12-12T08:11:40.494Z,32.99
2018-12-12T08:12:40.501Z,33.56
2018-12-12T08:13:40.501Z,33.65
2018-12-12T08:14:40.497Z,34.12
2018-12-12T08:15:40.501Z,33.65
2018-12-12T08:16:40.506Z,34.03
2018-12-12T08:17:40.503Z,34.12
2018-12-12T08:18:40.506Z,33.84
2018-12-12T08:19:40.506Z,34.22
2018-12-12T08:20:40.506Z,34.78
2018-12-12T08:21:40.513Z,34.12
2018-12-12T08:22:40.511Z,34.59
2018-12-12T08:23:40.512Z,34.59
2018-12-12T08:24:40.514Z,34.97
2018-12-12T08:25:40.514Z,34.78
2018-12-12T08:26:40.518Z,34.59
2018-12-12T08:27:40.520Z,34.69
2018-12-12T08:28:40.518Z,34.41
2018-12-12T08:29:40.521Z,34.69
2018-12-12T08:30:40.523Z,34.50
2018-12-12T08:31:40.524Z,34.59
2018-12-12T08:32:40.524Z,34.59
2018-12-12T08:33:40.526Z,34.78
2018-12-12T08:34:40.528Z,35.35
2018-12-12T08:35:40.530Z,35.63
2018-12-12T08:36:40.539Z,35.53
2018-12-12T08:37:40.533Z,35.46
2018-12-12T08:38:40.536Z,35.46
2018-12-12T08:39:40.536Z,35.74
2018-12-12T08:40:40.542Z,35.08
2018-12-12T08:41:40.543Z,34.99
2018-12-12T08:42:40.545Z,35.18
2018-12-12T08:43:40.550Z,35.08
2018-12-12T08:44:40.552Z,34.63
2018-12-12T08:45:40.558Z,34.44
2018-12-12T08:46:40.558Z,33.40
2018-12-12T08:47:40.572Z,32.84
2018-12-12T08:48:40.574Z,32.84
2018-12-12T08:49:40.568Z,32.93
2018-12-12T08:50:40.596Z,33.59
2018-12-12T08:51:40.604Z,34.27
2018-12-12T08:52:40.583Z,33.42
2018-12-12T08:53:40.585Z,33.70
2018-12-12T08:54:40.591Z,33.80
2018-12-12T08:55:40.593Z,35.12
2018-12-12T08:56:40.597Z,35.50
2018-12-12T08:57:40.601Z,35.61
2018-12-12T08:58:40.606Z,35.42
2018-12-12T08:59:40.611Z,35.61
2018-12-12T09:00:40.615Z,35.99
2018-12-12T09:01:40.619Z,35.99
2018-12-12T09:02:40.625Z,35.80
2018-12-12T09:03:40.633Z,36.08
2018-12-12T09:04:40.642Z,35.69
2018-12-12T09:05:40.638Z,35.42
2018-12-12T09:06:40.648Z,35.89
2018-12-12T09:07:40.651Z,37.88
2018-12-12T09:08:40.654Z,37.69
2018-12-12T09:09:40.666Z,37.90
2018-12-12T09:10:40.665Z,37.71
2018-12-12T09:11:40.671Z,36.76
2018-12-12T09:12:40.676Z,35.16
2018-12-12T09:13:40.682Z,35.63
2018-12-12T09:14:40.687Z,35.91
2018-12-12T09:15:40.691Z,36.00
2018-12-12T09:16:40.697Z,36.95
2018-12-12T09:17:40.702Z,37.99
2018-12-12T09:18:40.715Z,36.57
2018-12-12T09:19:40.714Z,36.68
2018-12-12T09:20:40.719Z,36.21
2018-12-12T09:21:40.724Z,35.46
2018-12-12T09:22:40.731Z,34.91
2018-12-12T09:23:40.736Z,33.37
2018-12-12T09:24:40.743Z,32.32
2018-12-12T09:25:40.748Z,33.26
2018-12-12T09:26:40.756Z,35.44
2018-12-12T09:27:40.763Z,36.85
2018-12-12T09:28:40.766Z,37.80
2018-12-12T09:29:40.783Z,37.52
2018-12-12T09:30:40.790Z,36.10
2018-12-12T09:31:40.783Z,35.72
2018-12-12T09:32:40.787Z,34.49
2018-12-12T09:33:40.795Z,34.68
2018-12-12T09:34:40.798Z,35.52
2018-12-12T09:35:40.807Z,35.14
2018-12-12T09:36:40.813Z,36.57
2018-12-12T09:37:40.821Z,39.69
2018-12-12T09:38:40.823Z,40.92
2018-12-12T09:39:40.830Z,40.83
2018-12-12T09:40:40.838Z,40.47
2018-12-12T09:41:40.847Z,38.76
2018-12-12T09:42:40.850Z,36.10
2018-12-12T09:43:40.856Z,35.53
2018-12-12T09:44:40.861Z,36.12
2018-12-12T09:45:40.869Z,37.44
2018-12-12T09:46:40.873Z,38.39
2018-12-12T09:47:40.885Z,38.10
2018-12-12T09:48:40.892Z,38.86
2018-12-12T09:49:40.901Z,39.81
2018-12-12T09:50:40.906Z,41.06
2018-12-12T09:51:40.910Z,41.25
2018-12-12T09:52:40.916Z,39.62
2018-12-12T09:53:40.918Z,40.11
2018-12-12T09:54:40.928Z,40.58
2018-12-12T09:55:40.938Z,41.25
2018-12-12T09:56:40.943Z,40.77
2018-12-12T09:57:40.948Z,40.58
2018-12-12T09:58:40.959Z,37.76
2018-12-12T09:59:40.961Z,31.90
2018-12-12T10:00:40.968Z,36.06
2018-12-12T10:01:40.978Z,37.67
2018-12-12T10:02:40.986Z,37.57
2018-12-12T10:03:40.997Z,36.44
2018-12-12T10:04:40.999Z,35.11
2018-12-12T10:05:41.004Z,36.35
2018-12-12T10:06:41.013Z,37.10
2018-12-12T10:07:41.021Z,36.63
2018-12-12T10:08:41.029Z,37.19
2018-12-12T10:09:41.035Z,37.67
2018-12-12T10:10:41.047Z,38.52
2018-12-12T10:11:41.050Z,39.29
2018-12-12T10:12:41.062Z,37.50
2018-12-12T10:13:41.068Z,37.19
2018-12-12T10:14:41.076Z,37.97
2018-12-12T10:15:41.082Z,36.74
2018-12-12T10:16:41.093Z,36.65
2018-12-12T10:17:41.099Z,37.59
2018-12-12T10:18:41.111Z,38.56
2018-12-12T10:19:41.117Z,37.73
2018-12-12T10:20:41.127Z,34.77
2018-12-12T10:21:41.137Z,36.85
2018-12-12T10:22:41.145Z,37.04
2018-12-12T10:23:41.152Z,37.82
2018-12-12T10:24:41.165Z,34.50
2018-12-12T10:25:41.170Z,27.58
2018-12-12T10:26:41.179Z,29.48
2018-12-12T10:27:41.188Z,31.95
2018-12-12T10:28:41.195Z,33.08
2018-12-12T10:29:41.207Z,34.71
2018-12-12T10:30:41.216Z,34.80
2018-12-12T10:31:41.225Z,32.53
2018-12-12T10:32:41.237Z,32.53
2018-12-12T10:33:41.245Z,31.87
2018-12-12T10:34:41.253Z,31.29
2018-12-12T10:35:41.264Z,33.86
2018-12-12T10:36:41.272Z,34.80
2018-12-12T10:37:41.283Z,33.08
2018-12-12T10:38:41.298Z,32.97
2018-12-12T10:39:41.301Z,36.00
2018-12-12T10:40:41.316Z,38.77
2018-12-12T10:41:41.321Z,36.87
2018-12-12T10:42:41.336Z,36.97
2018-12-12T10:43:41.340Z,35.55
2018-12-12T10:44:41.354Z,35.17
2018-12-12T10:45:41.362Z,35.94
2018-12-12T10:46:41.378Z,37.74
2018-12-12T10:47:41.384Z,36.04
2018-12-12T10:48:41.390Z,35.57
2018-12-12T10:49:41.402Z,35.72
2018-12-12T10:50:41.414Z,37.99
2018-12-12T10:51:41.429Z,39.70
2018-12-12T10:52:41.433Z,41.89
2018-12-12T10:53:41.445Z,41.54
2018-12-12T10:54:41.457Z,38.12
2018-12-12T10:55:41.465Z,36.49
2018-12-12T10:56:41.476Z,37.78
2018-12-12T10:57:41.487Z,40.64
2018-12-12T10:58:41.498Z,40.64
2018-12-12T10:59:41.509Z,40.47
2018-12-12T11:00:41.523Z,37.23
2018-12-12T11:01:41.534Z,36.46
2018-12-12T11:02:41.543Z,40.34
2018-12-12T11:03:44.301Z,41.78
2018-12-12T11:04:41.561Z,40.81
2018-12-12T11:05:41.574Z,41.38
2018-12-12T11:06:41.584Z,43.07
2018-12-12T11:07:41.596Z,43.73
2018-12-12T11:08:41.604Z,43.44
2018-12-12T11:09:41.618Z,43.14
2018-12-12T11:10:41.627Z,43.63
2018-12-12T11:11:41.636Z,44.48
2018-12-12T11:12:41.647Z,43.16
2018-12-12T11:13:41.658Z,40.98
2018-12-12T11:14:41.671Z,38.14
2018-12-12T11:15:41.681Z,38.79
2018-12-12T11:16:41.693Z,39.07
2018-12-12T11:17:41.703Z,40.60
2018-12-12T11:18:41.717Z,39.00
2018-12-12T11:19:41.724Z,38.43
2018-12-12T11:20:41.734Z,38.81
2018-12-12T11:21:41.751Z,38.35
2018-12-12T11:22:41.766Z,40.45
2018-12-12T11:23:41.768Z,39.51
2018-12-12T11:24:41.779Z,35.79
2018-12-12T11:25:41.792Z,35.70
2018-12-12T11:26:41.800Z,37.67
2018-12-12T11:27:41.808Z,38.82
2018-12-12T11:28:41.818Z,40.17
2018-12-12T11:29:41.830Z,38.20
2018-12-12T11:30:41.843Z,35.57
2018-12-12T11:31:41.854Z,34.11
2018-12-12T11:32:41.865Z,32.48
2018-12-12T11:33:41.876Z,34.84
2018-12-12T11:34:41.893Z,36.08
2018-12-12T11:35:41.897Z,35.98
2018-12-12T11:36:41.907Z,38.35
2018-12-12T11:37:41.922Z,38.37
2018-12-12T11:38:41.932Z,37.31
2018-12-12T11:39:41.940Z,37.01
2018-12-12T11:40:41.953Z,36.54
2018-12-12T11:41:41.966Z,37.69
2018-12-12T11:42:41.976Z,39.03
2018-12-12T11:43:41.987Z,37.35
2018-12-12T11:44:41.998Z,34.98
2018-12-12T11:45:42.009Z,34.77
2018-12-12T11:46:42.021Z,34.00
2018-12-12T11:47:42.030Z,34.75
2018-12-12T11:48:42.047Z,35.62
2018-12-12T11:49:42.059Z,37.82
2018-12-12T11:50:42.066Z,37.82
2018-12-12T11:51:42.079Z,37.06
2018-12-12T11:52:42.089Z,38.35
2018-12-12T11:53:42.103Z,39.68
2018-12-12T11:54:42.112Z,41.66
2018-12-12T11:55:42.125Z,41.66
2018-12-12T11:56:42.137Z,42.73
2018-12-12T11:57:42.151Z,41.97
2018-12-12T11:58:42.158Z,42.25
2018-12-12T11:59:42.172Z,43.32
2018-12-12T12:00:42.182Z,42.47
2018-12-12T12:01:42.221Z,41.69
2018-12-12T12:02:42.210Z,41.69
2018-12-12T12:03:42.218Z,41.50
2018-12-12T12:04:42.229Z,40.64
2018-12-12T12:05:42.245Z,40.28
2018-12-12T12:06:42.261Z,38.46
2018-12-12T12:07:42.265Z,37.71
2018-12-12T12:08:42.275Z,36.57
2018-12-12T12:09:42.293Z,36.66
2018-12-12T12:10:42.303Z,38.86
2018-12-12T12:11:42.316Z,37.73
2018-12-12T12:12:42.324Z,37.73
2018-12-12T12:13:42.339Z,38.94
2018-12-12T12:14:42.349Z,38.94
2018-12-12T12:15:42.359Z,38.64
2018-12-12T12:16:42.372Z,40.45
2018-12-12T12:17:42.390Z,40.17
2018-12-12T12:18:42.396Z,40.08
2018-12-12T12:19:42.407Z,39.70
2018-12-12T12:20:42.423Z,38.81
2018-12-12T12:21:42.432Z,37.37
2018-12-12T12:22:42.445Z,36.44
2018-12-12T12:23:42.456Z,37.76
2018-12-12T12:24:42.467Z,42.59
2018-12-12T12:25:42.479Z,42.21
2018-12-12T12:26:42.493Z,40.70
2018-12-12T12:27:42.504Z,38.33
2018-12-12T12:28:42.517Z,37.10
2018-12-12T12:29:42.528Z,32.84
2018-12-12T12:30:42.539Z,33.52
2018-12-12T12:31:42.550Z,31.80
2018-12-12T12:32:42.563Z,31.91
2018-12-12T12:33:42.579Z,29.45
2018-12-12T12:34:42.626Z,29.54
2018-12-12T12:35:42.655Z,32.48
2018-12-12T12:36:42.614Z,28.86
2018-12-12T12:37:42.628Z,29.62
2018-12-12T12:38:42.633Z,27.16
2018-12-12T12:39:42.644Z,27.54
2018-12-12T12:40:42.658Z,29.35
2018-12-12T12:41:42.668Z,28.61
2018-12-12T12:42:42.681Z,28.61
2018-12-12T12:43:42.692Z,25.96
2018-12-12T12:44:42.703Z,27.58
2018-12-12T12:45:42.718Z,27.30
2018-12-12T12:46:42.728Z,23.40
2018-12-12T12:47:42.738Z,24.44
2018-12-12T12:48:42.751Z,27.11
2018-12-12T12:49:42.762Z,27.40
2018-12-12T12:50:44.130Z,27.14
2018-12-12T12:51:42.796Z,26.55
2018-12-12T12:52:42.801Z,27.77